Time;durP1;ratioP1;P1;durP2;ratioP2;P2;SDS_P1;SDS_P2;PMS_P1;PMS_P2;Temp;Humidity;BMP_temperature;BMP_pressure;BME280_temperature;BME280_humidity;BME280_pressure;Samples;Min_cycle;Max_cycle;Signal;HPM_P1;HPM_P2
2020/12/08 00:02:14;;;;;;;29.02;14.80;;;6.10;99.90;;;;;;5038064;28;20030;-81
2020/12/08 00:04:40;;;;;;;28.63;14.57;;;6.10;99.90;;;;;;5043356;28;20029;-81
2020/12/08 00:07:06;;;;;;;30.35;14.63;;;6.10;99.90;;;;;;5045150;28;20416;-81
2020/12/08 00:09:32;;;;;;;25.13;14.25;;;6.10;99.90;;;;;;5045596;28;20021;-81
2020/12/08 00:11:58;;;;;;;27.30;14.25;;;6.20;99.90;;;;;;5048997;28;20085;-81
2020/12/08 00:14:23;;;;;;;26.48;14.25;;;6.40;99.90;;;;;;5046852;28;20029;-81
2020/12/08 00:16:49;;;;;;;25.05;14.57;;;6.40;99.90;;;;;;5049214;28;20619;-81
2020/12/08 00:19:14;;;;;;;25.90;14.10;;;6.50;99.90;;;;;;5048154;28;20021;-81
2020/12/08 00:21:44;;;;;;;25.88;15.10;;;6.50;99.90;;;;;;5045362;28;20044;-81
2020/12/08 00:24:13;;;;;;;26.42;14.77;;;6.60;99.90;;;;;;5046829;28;20048;-81
2020/12/08 00:26:40;;;;;;;28.58;14.73;;;6.60;99.90;;;;;;5047087;28;20025;-81
2020/12/08 00:29:06;;;;;;;29.30;15.50;;;6.60;99.90;;;;;;5043048;28;20041;-81
2020/12/08 00:31:31;;;;;;;30.45;15.98;;;6.60;99.90;;;;;;5048568;28;20025;-81
2020/12/08 00:33:57;;;;;;;27.77;15.02;;;6.60;99.90;;;;;;5046999;28;20025;-81
2020/12/08 00:36:23;;;;;;;29.25;15.60;;;6.50;99.90;;;;;;5048330;28;20424;-81
2020/12/08 00:38:49;;;;;;;31.45;15.60;;;6.50;99.90;;;;;;5043619;28;20028;-81
2020/12/08 00:41:19;;;;;;;32.90;16.63;;;6.60;99.90;;;;;;5037797;28;20053;-81
2020/12/08 00:43:45;;;;;;;30.65;16.33;;;6.60;99.90;;;;;;5030579;28;20029;-81
2020/12/08 00:46:15;;;;;;;33.15;15.32;;;6.60;99.90;;;;;;5044191;28;20113;-78
2020/12/08 00:48:41;;;;;;;29.80;15.98;;;6.60;99.90;;;;;;5049704;28;20033;-79
2020/12/08 00:51:08;;;;;;;33.60;16.15;;;6.70;99.90;;;;;;5044037;28;20025;-81
2020/12/08 00:53:33;;;;;;;26.88;15.40;;;6.60;99.90;;;;;;5049858;28;20037;-79
2020/12/08 00:55:59;;;;;;;35.70;16.38;;;6.60;99.90;;;;;;5044885;28;20020;-79
2020/12/08 00:58:25;;;;;;;32.00;16.88;;;6.60;99.90;;;;;;5033663;28;20635;-79
2020/12/08 01:00:51;;;;;;;31.10;17.00;;;6.60;99.90;;;;;;5040816;28;20044;-79
2020/12/08 01:03:17;;;;;;;32.35;16.75;;;6.60;99.90;;;;;;5045003;28;20032;-79
2020/12/08 01:05:42;;;;;;;35.13;16.75;;;6.60;99.90;;;;;;5043529;28;20112;-79
2020/12/08 01:08:08;;;;;;;35.25;17.35;;;6.60;99.90;;;;;;5047233;28;20552;-79
2020/12/08 01:10:33;;;;;;;33.10;17.20;;;6.60;99.90;;;;;;5048147;28;20060;-79
2020/12/08 01:12:59;;;;;;;36.60;16.88;;;6.60;99.90;;;;;;5043337;28;20353;-79
2020/12/08 01:15:25;;;;;;;31.17;16.95;;;6.50;99.90;;;;;;5045256;28;20025;-79
2020/12/08 01:17:51;;;;;;;34.95;17.90;;;6.60;99.90;;;;;;5045049;28;20462;-79
2020/12/08 01:20:16;;;;;;;35.88;18.38;;;6.60;99.90;;;;;;5045557;28;20048;-79
2020/12/08 01:22:42;;;;;;;38.63;17.85;;;6.50;99.90;;;;;;5047259;28;20408;-80
2020/12/08 01:25:07;;;;;;;38.80;17.55;;;6.60;99.90;;;;;;5049224;28;20039;-79
2020/12/08 01:27:33;;;;;;;36.75;18.63;;;6.60;99.90;;;;;;5047182;28;20025;-79
2020/12/08 01:29:59;;;;;;;32.67;17.17;;;6.60;99.90;;;;;;5045252;28;20049;-80
2020/12/08 01:32:24;;;;;;;38.63;18.38;;;6.60;99.90;;;;;;5041668;28;20497;-80
2020/12/08 01:34:50;;;;;;;39.53;18.92;;;6.70;99.90;;;;;;5045335;28;20029;-79
2020/12/08 01:37:16;;;;;;;39.08;19.02;;;6.60;99.90;;;;;;5045477;28;20020;-79
2020/12/08 01:39:41;;;;;;;40.50;19.13;;;6.60;99.90;;;;;;5046389;28;20131;-80
2020/12/08 01:42:07;;;;;;;38.35;18.73;;;6.70;99.90;;;;;;5041902;28;20511;-79
2020/12/08 01:44:33;;;;;;;39.88;19.23;;;6.70;99.90;;;;;;5039125;28;20036;-79
2020/12/08 01:46:58;;;;;;;44.35;19.92;;;6.80;99.90;;;;;;5046463;28;20033;-79
2020/12/08 01:49:24;;;;;;;36.75;19.13;;;6.70;99.90;;;;;;5047240;28;20483;-79
2020/12/08 01:51:50;;;;;;;39.83;19.83;;;6.80;99.90;;;;;;5041453;28;20034;-79
2020/12/08 01:54:16;;;;;;;46.70;20.85;;;6.70;99.90;;;;;;5033971;28;20021;-79
2020/12/08 01:56:42;;;;;;;41.83;20.05;;;6.80;99.90;;;;;;5041156;28;20026;-79
2020/12/08 01:59:07;;;;;;;44.53;20.92;;;6.70;99.90;;;;;;5036932;28;20040;-79
2020/12/08 02:01:33;;;;;;;38.33;19.70;;;6.70;99.90;;;;;;5040002;28;20670;-79
2020/12/08 02:03:59;;;;;;;44.58;21.02;;;6.80;99.90;;;;;;5027398;28;20033;-79
2020/12/08 02:06:25;;;;;;;43.10;19.42;;;6.80;99.90;;;;;;5039929;28;20495;-79
2020/12/08 02:08:51;;;;;;;41.13;19.80;;;6.70;99.90;;;;;;5047724;28;20028;-79
2020/12/08 02:11:17;;;;;;;42.85;20.50;;;6.80;99.90;;;;;;5043214;28;20046;-79
2020/12/08 02:13:42;;;;;;;41.28;20.50;;;6.80;99.90;;;;;;5046260;28;20395;-79
2020/12/08 02:16:08;;;;;;;45.40;20.92;;;6.80;99.90;;;;;;5044791;28;20514;-79
2020/12/08 02:18:33;;;;;;;42.30;20.05;;;6.80;99.90;;;;;;5048130;28;20021;-79
2020/12/08 02:21:02;;;;;;;46.20;21.00;;;6.80;99.90;;;;;;5044297;28;20099;-79
2020/12/08 02:23:28;;;;;;;38.60;20.50;;;6.80;99.90;;;;;;5045275;28;20534;-79
2020/12/08 02:25:58;;;;;;;49.58;20.52;;;6.90;99.90;;;;;;5040906;28;20025;-79
2020/12/08 02:28:25;;;;;;;47.80;20.80;;;6.90;99.90;;;;;;5036872;28;20032;-79
2020/12/08 02:30:50;;;;;;;43.35;21.02;;;6.90;99.90;;;;;;5045814;28;20028;-79
2020/12/08 02:33:16;;;;;;;43.75;20.50;;;6.80;99.90;;;;;;5044751;28;20025;-79
2020/12/08 02:35:41;;;;;;;39.72;20.25;;;6.80;99.90;;;;;;5040476;28;20025;-79
2020/12/08 02:38:07;;;;;;;46.53;20.10;;;6.80;99.90;;;;;;5043206;28;20052;-79
2020/12/08 02:40:32;;;;;;;43.35;20.02;;;6.70;99.90;;;;;;5041425;28;20071;-79
2020/12/08 02:42:58;;;;;;;43.53;20.55;;;6.70;99.90;;;;;;5040738;28;20115;-79
2020/12/08 02:45:23;;;;;;;42.40;21.00;;;6.70;99.90;;;;;;5043467;28;20113;-79
2020/12/08 02:47:49;;;;;;;47.47;20.33;;;6.70;99.90;;;;;;5041848;28;20044;-79
2020/12/08 02:50:14;;;;;;;39.80;19.92;;;6.70;99.90;;;;;;5042638;28;20384;-79
2020/12/08 02:52:40;;;;;;;40.83;20.98;;;6.70;99.90;;;;;;5045779;28;20071;-79
2020/12/08 02:55:06;;;;;;;44.70;20.58;;;6.70;99.90;;;;;;5045369;28;20071;-79
2020/12/08 02:57:32;;;;;;;46.38;20.23;;;6.70;99.90;;;;;;5040847;28;20506;-79
2020/12/08 02:59:58;;;;;;;38.97;19.88;;;6.80;99.90;;;;;;5044454;28;20032;-79
2020/12/08 03:02:24;;;;;;;42.83;19.85;;;6.70;99.90;;;;;;5045979;28;20029;-79
2020/12/08 03:04:49;;;;;;;45.38;21.23;;;6.70;99.90;;;;;;5037594;28;20017;-80
2020/12/08 03:07:15;;;;;;;41.92;20.65;;;6.70;99.90;;;;;;5044195;28;20080;-79
2020/12/08 03:09:40;;;;;;;48.00;21.02;;;6.70;99.90;;;;;;5046981;28;20486;-80
2020/12/08 03:12:09;;;;;;;40.45;20.25;;;6.70;99.90;;;;;;5040907;28;20024;-79
2020/12/08 03:14:35;;;;;;;49.53;20.17;;;6.70;99.90;;;;;;5043802;28;20041;-80
2020/12/08 03:17:01;;;;;;;41.30;20.52;;;6.70;99.90;;;;;;5046202;28;20502;-79
2020/12/08 03:19:26;;;;;;;44.40;18.95;;;6.70;99.90;;;;;;5043868;28;20029;-79
2020/12/08 03:21:51;;;;;;;42.53;20.90;;;6.70;99.90;;;;;;5045227;28;20545;-79
2020/12/08 03:24:17;;;;;;;47.30;20.88;;;6.80;99.90;;;;;;5046788;28;20029;-79
2020/12/08 03:26:42;;;;;;;41.40;20.50;;;6.70;99.90;;;;;;5035221;28;20452;-79
2020/12/08 03:29:08;;;;;;;42.70;20.92;;;6.80;99.90;;;;;;5044215;28;20067;-79
2020/12/08 03:31:33;;;;;;;40.28;20.55;;;6.70;99.90;;;;;;5047065;28;20021;-79
2020/12/08 03:33:59;;;;;;;45.15;21.08;;;6.70;99.90;;;;;;5043294;28;20123;-79
2020/12/08 03:36:24;;;;;;;44.88;21.10;;;6.70;99.90;;;;;;5042853;28;20120;-79
2020/12/08 03:38:50;;;;;;;42.13;20.13;;;6.70;99.90;;;;;;5032973;28;20029;-79
2020/12/08 03:41:20;;;;;;;47.75;20.85;;;6.80;99.90;;;;;;5035013;28;20029;-79
2020/12/08 03:43:47;;;;;;;46.90;20.95;;;6.80;99.90;;;;;;5042995;28;20021;-79
2020/12/08 03:46:23;;;;;;;43.83;20.20;;;6.70;99.90;;;;;;5037928;28;20379;-79
2020/12/08 03:48:50;;;;;;;40.42;20.75;;;6.70;99.90;;;;;;5041561;28;20025;-80
2020/12/08 03:51:17;;;;;;;45.15;20.48;;;6.80;99.90;;;;;;5044728;28;20061;-79
2020/12/08 03:53:43;;;;;;;44.97;21.45;;;6.80;99.90;;;;;;5034916;28;20063;-79
2020/12/08 03:56:13;;;;;;;42.25;21.08;;;6.80;99.90;;;;;;5038017;28;20064;-79
2020/12/08 03:58:40;;;;;;;45.08;20.13;;;6.80;99.90;;;;;;5042816;28;20029;-79
2020/12/08 04:01:06;;;;;;;45.40;20.90;;;6.80;99.90;;;;;;5037787;28;20487;-79
2020/12/08 04:03:32;;;;;;;43.60;19.88;;;6.80;99.90;;;;;;5047313;28;20079;-79
2020/12/08 04:06:03;;;;;;;43.03;21.33;;;6.80;99.90;;;;;;5044290;28;20029;-79
2020/12/08 04:08:28;;;;;;;42.38;21.45;;;6.80;99.90;;;;;;5041469;28;20078;-79
2020/12/08 04:10:53;;;;;;;49.65;21.75;;;6.80;99.90;;;;;;5047111;28;20028;-79
2020/12/08 04:13:19;;;;;;;48.92;20.55;;;6.80;99.90;;;;;;5049599;28;20032;-79
2020/12/08 04:15:44;;;;;;;46.17;20.73;;;6.80;99.90;;;;;;5048803;28;20032;-79
2020/12/08 04:18:10;;;;;;;44.47;20.85;;;6.80;99.90;;;;;;5042402;28;20026;-78
2020/12/08 04:20:35;;;;;;;42.45;21.23;;;6.80;99.90;;;;;;5048528;28;20106;-79
2020/12/08 04:23:01;;;;;;;41.53;19.88;;;6.80;99.90;;;;;;5049051;28;20031;-79
2020/12/08 04:25:26;;;;;;;44.55;21.23;;;6.80;99.90;;;;;;5046512;28;20733;-79
2020/12/08 04:27:52;;;;;;;46.35;20.98;;;6.80;99.90;;;;;;5044941;28;20061;-80
2020/12/08 04:30:17;;;;;;;45.13;20.98;;;6.90;99.90;;;;;;5042725;28;20045;-79
2020/12/08 04:32:42;;;;;;;43.60;20.70;;;6.80;99.90;;;;;;5048175;28;20021;-79
2020/12/08 04:35:08;;;;;;;44.25;21.38;;;6.70;99.90;;;;;;5041013;28;20033;-79
2020/12/08 04:37:34;;;;;;;43.50;22.08;;;6.70;99.90;;;;;;5044024;28;20662;-79
2020/12/08 04:39:59;;;;;;;42.35;20.05;;;6.80;99.90;;;;;;5043608;28;20434;-80
2020/12/08 04:42:24;;;;;;;44.92;21.02;;;6.80;99.90;;;;;;5047657;28;20020;-79
2020/12/08 04:44:51;;;;;;;46.35;20.88;;;6.80;99.90;;;;;;5045254;28;20037;-80
2020/12/08 04:47:21;;;;;;;43.47;20.60;;;6.80;99.90;;;;;;5047694;28;20095;-79
2020/12/08 04:49:47;;;;;;;44.75;20.20;;;6.80;99.90;;;;;;5046742;28;20503;-79
2020/12/08 04:52:14;;;;;;;46.45;21.13;;;6.80;99.90;;;;;;5048207;28;20123;-79
2020/12/08 04:54:41;;;;;;;48.03;22.17;;;6.80;99.90;;;;;;5048110;28;20488;-79
2020/12/08 04:57:07;;;;;;;42.03;20.88;;;6.80;99.90;;;;;;5048100;28;20029;-79
2020/12/08 04:59:32;;;;;;;47.10;21.40;;;6.80;99.90;;;;;;5044623;28;20112;-80
2020/12/08 05:02:02;;;;;;;42.72;20.85;;;6.80;99.90;;;;;;5044777;28;20025;-80
2020/12/08 05:04:27;;;;;;;42.33;20.52;;;6.80;99.90;;;;;;5049060;28;20037;-80
2020/12/08 05:07:07;;;;;;;44.25;20.40;;;6.80;99.90;;;;;;5047054;28;20021;-79
2020/12/08 05:09:46;;;;;;;46.63;21.20;;;6.80;99.90;;;;;;5043364;28;20487;-79
2020/12/08 05:12:12;;;;;;;47.33;20.95;;;6.70;99.90;;;;;;5039341;28;20036;-79
2020/12/08 05:14:41;;;;;;;41.60;19.75;;;6.70;99.90;;;;;;5043386;28;20383;-81
2020/12/08 05:17:07;;;;;;;41.35;19.65;;;6.70;99.90;;;;;;5047674;28;20423;-82
2020/12/08 05:19:32;;;;;;;43.42;21.35;;;6.70;99.90;;;;;;5047027;28;20104;-80
2020/12/08 05:21:59;;;;;;;46.17;20.88;;;6.70;99.90;;;;;;5046963;28;20479;-80
2020/12/08 05:24:29;;;;;;;43.88;21.35;;;6.70;99.90;;;;;;5047812;28;20052;-80
2020/12/08 05:27:00;;;;;;;45.03;21.58;;;6.70;99.90;;;;;;5036063;28;20029;-80
2020/12/08 05:29:27;;;;;;;41.47;19.70;;;6.70;99.90;;;;;;5046732;28;20514;-80
2020/12/08 05:31:53;;;;;;;41.17;20.38;;;6.70;99.90;;;;;;5041505;28;20043;-80
2020/12/08 05:34:20;;;;;;;49.47;20.25;;;6.70;99.90;;;;;;5049221;28;20172;-80
2020/12/08 05:36:49;;;;;;;41.95;20.67;;;6.70;99.90;;;;;;5046088;28;20090;-79
2020/12/08 05:39:17;;;;;;;40.65;19.80;;;6.60;99.90;;;;;;5036818;28;20040;-80
2020/12/08 05:41:44;;;;;;;44.03;21.42;;;6.70;99.90;;;;;;5047297;28;20112;-80
2020/12/08 05:44:16;;;;;;;42.53;20.50;;;6.70;99.90;;;;;;5043110;28;20029;-80
2020/12/08 05:46:42;;;;;;;42.05;20.08;;;6.60;99.90;;;;;;5048020;28;20112;-80
2020/12/08 05:49:14;;;;;;;45.47;22.13;;;6.60;99.90;;;;;;5043759;28;20128;-79
2020/12/08 05:51:42;;;;;;;49.00;21.65;;;6.60;99.90;;;;;;5046166;28;20029;-79
2020/12/08 05:54:13;;;;;;;43.92;20.98;;;6.60;99.90;;;;;;5043898;28;20529;-79
2020/12/08 05:56:38;;;;;;;42.25;20.77;;;6.70;99.90;;;;;;5030869;28;20068;-80
2020/12/08 05:59:04;;;;;;;43.33;20.52;;;6.70;99.90;;;;;;5051017;28;20076;-80
2020/12/08 06:01:30;;;;;;;41.47;19.75;;;6.70;99.90;;;;;;5045832;28;20025;-78
2020/12/08 06:03:56;;;;;;;41.30;20.58;;;6.60;99.90;;;;;;5045780;28;20033;-73
2020/12/08 06:06:21;;;;;;;44.22;20.92;;;6.60;99.90;;;;;;5044778;28;20025;-75
2020/12/08 06:08:48;;;;;;;44.42;20.77;;;6.60;99.90;;;;;;5042984;28;20025;-75
2020/12/08 06:11:14;;;;;;;47.10;20.45;;;6.60;99.90;;;;;;5038016;28;20128;-75
2020/12/08 06:13:48;;;;;;;44.25;21.33;;;6.60;99.90;;;;;;5040378;28;20480;-75
2020/12/08 06:16:23;;;;;;;48.42;20.38;;;6.60;99.90;;;;;;5046728;28;20039;-77
2020/12/08 06:18:50;;;;;;;46.58;21.15;;;6.70;99.90;;;;;;5041221;28;20033;-75
2020/12/08 06:21:26;;;;;;;45.40;21.08;;;6.60;99.90;;;;;;5039050;28;20080;-75
2020/12/08 06:24:01;;;;;;;44.00;20.67;;;6.50;99.90;;;;;;5056308;28;20498;-84
2020/12/08 06:26:34;;;;;;;41.67;21.05;;;6.60;99.90;;;;;;5058883;28;20037;-81
2020/12/08 06:29:08;;;;;;;49.15;21.08;;;6.70;99.90;;;;;;5056678;28;20048;-76
2020/12/08 06:31:48;;;;;;;46.08;21.40;;;6.70;99.90;;;;;;5056737;28;20459;-77
2020/12/08 06:34:31;;;;;;;51.13;20.52;;;6.70;99.90;;;;;;5052675;28;20600;-77
2020/12/08 06:37:08;;;;;;;42.60;21.50;;;6.70;99.90;;;;;;5045019;28;20029;-75
2020/12/08 06:39:33;;;;;;;45.83;21.15;;;6.70;99.90;;;;;;5047556;28;20032;-76
2020/12/08 06:41:59;;;;;;;41.83;20.50;;;6.70;99.90;;;;;;5032056;28;20361;-74
2020/12/08 06:44:24;;;;;;;45.60;21.58;;;6.60;99.90;;;;;;5037868;28;20441;-75
2020/12/08 06:46:58;;;;;;;47.92;21.67;;;6.60;99.90;;;;;;5030364;28;20765;-75
2020/12/08 06:49:33;;;;;;;46.63;21.38;;;6.60;99.90;;;;;;5039057;28;20135;-76
2020/12/08 06:51:59;;;;;;;43.67;20.58;;;6.60;99.90;;;;;;5037749;28;20033;-75
2020/12/08 06:54:25;;;;;;;45.45;21.80;;;6.70;99.90;;;;;;5032828;28;20041;-76
2020/12/08 06:57:01;;;;;;;44.28;20.38;;;6.60;99.90;;;;;;5033407;28;20032;-72
2020/12/08 06:59:28;;;;;;;51.30;22.25;;;6.60;99.90;;;;;;5033021;28;20033;-75
2020/12/08 07:01:56;;;;;;;42.03;20.88;;;6.60;99.90;;;;;;5038382;28;20030;-76
2020/12/08 07:04:23;;;;;;;52.50;22.60;;;6.60;99.90;;;;;;5041473;28;20361;-76
2020/12/08 07:06:49;;;;;;;43.63;20.65;;;6.60;99.90;;;;;;5034777;28;20032;-75
2020/12/08 07:09:15;;;;;;;47.85;21.45;;;6.60;99.90;;;;;;5040741;28;20380;-76
2020/12/08 07:11:41;;;;;;;48.75;21.92;;;6.60;99.90;;;;;;5044695;28;20053;-74
2020/12/08 07:14:26;;;;;;;47.08;21.58;;;6.60;99.90;;;;;;5054370;28;20020;-74
2020/12/08 07:16:51;;;;;;;44.45;22.00;;;6.60;99.90;;;;;;5034471;28;20021;-77
2020/12/08 07:19:17;;;;;;;41.83;19.92;;;6.60;99.90;;;;;;5039365;28;20548;-76
2020/12/08 07:21:43;;;;;;;41.17;20.15;;;6.60;99.90;;;;;;5041158;28;20028;-76
2020/12/08 07:24:09;;;;;;;46.45;21.13;;;6.60;99.90;;;;;;5046080;28;20375;-76
2020/12/08 07:26:34;;;;;;;40.20;20.30;;;6.60;99.90;;;;;;5046236;28;20166;-77
2020/12/08 07:29:00;;;;;;;48.83;21.23;;;6.60;99.90;;;;;;5033881;28;20045;-75
2020/12/08 07:31:30;;;;;;;46.22;20.90;;;6.50;99.90;;;;;;5046918;28;20534;-75
2020/12/08 07:33:55;;;;;;;41.40;20.65;;;6.50;99.90;;;;;;5045399;28;20017;-73
2020/12/08 07:36:28;;;;;;;42.47;21.27;;;6.60;99.90;;;;;;5042928;28;20029;-76
2020/12/08 07:38:55;;;;;;;43.15;20.40;;;6.50;99.90;;;;;;5033852;28;20022;-76
2020/12/08 07:41:22;;;;;;;43.35;20.40;;;6.50;99.90;;;;;;5038149;28;20029;-78
2020/12/08 07:43:48;;;;;;;43.97;20.88;;;6.40;99.90;;;;;;5046092;28;20040;-80
2020/12/08 07:46:30;;;;;;;50.33;22.20;;;6.50;99.90;;;;;;5032499;28;20610;-78
2020/12/08 07:49:06;;;;;;;42.75;21.52;;;6.60;99.90;;;;;;5030045;28;20527;-81
2020/12/08 07:51:33;;;;;;;46.33;19.83;;;6.50;99.90;;;;;;5045314;28;20542;-76
2020/12/08 07:54:00;;;;;;;41.60;20.42;;;6.50;99.90;;;;;;5036025;28;20036;-76
2020/12/08 07:56:27;;;;;;;49.53;21.90;;;6.60;99.90;;;;;;5037652;28;20021;-75
2020/12/08 07:58:53;;;;;;;42.08;19.25;;;6.50;99.90;;;;;;5030361;28;20617;-73
2020/12/08 08:01:18;;;;;;;46.30;21.50;;;6.60;99.90;;;;;;5032284;28;20112;-75
2020/12/08 08:03:44;;;;;;;42.03;20.02;;;6.60;99.90;;;;;;5033823;28;20498;-76
2020/12/08 08:06:17;;;;;;;46.95;20.58;;;6.60;99.90;;;;;;5040438;28;20090;-77
2020/12/08 08:08:44;;;;;;;43.22;20.40;;;6.70;99.90;;;;;;5035737;28;20399;-80
2020/12/08 08:11:10;;;;;;;41.03;20.65;;;6.60;99.90;;;;;;5031009;28;20021;-80
2020/12/08 08:13:35;;;;;;;40.50;19.67;;;6.60;99.90;;;;;;5036142;28;20036;-80
2020/12/08 08:16:01;;;;;;;42.97;20.88;;;6.60;99.90;;;;;;5044937;28;20040;-79
2020/12/08 08:18:26;;;;;;;45.40;21.75;;;6.70;99.90;;;;;;5047133;28;20847;-79
2020/12/08 08:20:52;;;;;;;44.63;20.55;;;6.70;99.90;;;;;;5034204;28;20383;-79
2020/12/08 08:23:17;;;;;;;40.92;20.35;;;6.70;99.90;;;;;;5047491;28;20444;-79
2020/12/08 08:25:43;;;;;;;42.53;19.92;;;6.70;99.90;;;;;;5044906;28;20021;-79
2020/12/08 08:28:08;;;;;;;44.63;20.08;;;6.80;99.90;;;;;;5046158;28;20116;-78
2020/12/08 08:30:34;;;;;;;43.50;20.45;;;6.80;99.90;;;;;;5045039;28;20021;-78
2020/12/08 08:32:59;;;;;;;43.80;20.20;;;6.80;99.90;;;;;;5042776;28;20421;-77
2020/12/08 08:35:27;;;;;;;46.85;20.08;;;6.80;99.90;;;;;;5032245;28;20036;-76
2020/12/08 08:37:53;;;;;;;41.90;20.55;;;6.70;99.90;;;;;;5042588;28;20044;-76
2020/12/08 08:40:18;;;;;;;42.20;21.42;;;6.60;99.90;;;;;;5043505;28;20021;-75
2020/12/08 08:42:44;;;;;;;40.47;20.70;;;6.60;99.90;;;;;;5046195;28;20029;-77
2020/12/08 08:45:09;;;;;;;49.97;21.48;;;6.70;99.90;;;;;;5034466;28;20028;-75
2020/12/08 08:47:35;;;;;;;41.42;20.50;;;6.70;99.90;;;;;;5034756;28;20104;-75
2020/12/08 08:50:00;;;;;;;45.72;20.70;;;6.80;99.90;;;;;;5045408;28;20021;-75
2020/12/08 08:52:26;;;;;;;41.70;20.10;;;6.80;99.90;;;;;;5042176;28;20028;-75
2020/12/08 08:54:51;;;;;;;40.63;19.92;;;6.60;99.90;;;;;;5041423;28;20021;-75
2020/12/08 08:57:17;;;;;;;45.20;20.02;;;6.50;99.90;;;;;;5034194;28;20025;-74
2020/12/08 08:59:43;;;;;;;49.42;21.50;;;6.50;99.90;;;;;;5034974;28;20506;-75
2020/12/08 09:02:09;;;;;;;39.75;20.70;;;6.40;99.90;;;;;;5033365;28;20092;-73
2020/12/08 09:04:34;;;;;;;46.60;21.83;;;6.40;99.90;;;;;;5035432;28;20569;-74
2020/12/08 09:06:59;;;;;;;42.28;20.63;;;6.40;99.90;;;;;;5031628;28;20419;-79
2020/12/08 09:09:25;;;;;;;46.08;21.33;;;6.50;99.90;;;;;;5038239;28;20123;-87
2020/12/08 09:11:50;;;;;;;42.20;20.92;;;6.50;99.90;;;;;;5041335;28;20075;-88
2020/12/08 09:14:16;;;;;;;43.28;20.05;;;6.50;99.90;;;;;;5035124;28;20112;-81
2020/12/08 09:16:44;;;;;;;37.30;18.55;;;6.60;99.90;;;;;;5030401;28;20025;-80
2020/12/08 09:19:10;;;;;;;45.22;22.30;;;6.60;99.90;;;;;;5039620;28;20021;-83
2020/12/08 09:21:35;;;;;;;45.55;21.58;;;6.60;99.90;;;;;;5031528;28;20415;-82
2020/12/08 09:24:01;;;;;;;41.15;21.20;;;6.70;99.90;;;;;;5032311;28;20025;-82
2020/12/08 09:26:26;;;;;;;41.92;20.50;;;6.80;99.90;;;;;;5033036;28;20037;-84
2020/12/08 09:28:52;;;;;;;47.72;21.05;;;6.90;99.90;;;;;;5036707;28;20052;-84
2020/12/08 09:31:18;;;;;;;42.45;20.48;;;6.90;99.90;;;;;;5035773;28;20051;-84
2020/12/08 09:33:43;;;;;;;42.97;21.23;;;6.90;99.90;;;;;;5038783;28;20014;-82
2020/12/08 09:36:09;;;;;;;43.75;21.67;;;6.80;99.90;;;;;;5028571;28;20052;-82
2020/12/08 09:38:34;;;;;;;43.75;21.45;;;6.80;99.90;;;;;;5040395;28;20021;-83
2020/12/08 09:41:00;;;;;;;42.03;20.88;;;6.90;99.90;;;;;;5045188;28;20459;-82
2020/12/08 09:43:25;;;;;;;40.03;20.27;;;6.80;99.90;;;;;;5043965;28;20028;-83
2020/12/08 09:45:51;;;;;;;40.08;20.20;;;6.90;99.90;;;;;;5041878;28;20020;-84
2020/12/08 09:48:16;;;;;;;41.75;21.23;;;6.90;99.90;;;;;;5032799;28;21126;-82
2020/12/08 09:50:42;;;;;;;48.60;21.77;;;7.00;99.90;;;;;;5038840;28;20024;-82
2020/12/08 09:53:07;;;;;;;40.78;21.17;;;7.00;99.90;;;;;;5045165;28;20033;-82
2020/12/08 09:55:33;;;;;;;45.50;21.23;;;7.10;99.90;;;;;;5044710;28;20230;-82
2020/12/08 09:57:58;;;;;;;42.80;20.75;;;7.20;99.90;;;;;;5044152;28;20021;-82
2020/12/08 10:00:24;;;;;;;42.70;20.35;;;7.40;99.90;;;;;;5043320;28;20483;-82
2020/12/08 10:02:49;;;;;;;44.00;21.27;;;7.40;99.90;;;;;;5045228;28;20040;-82
2020/12/08 10:05:15;;;;;;;45.92;20.70;;;7.40;99.90;;;;;;5043310;28;20028;-83
2020/12/08 10:07:42;;;;;;;48.42;21.73;;;7.60;99.90;;;;;;5041781;28;20029;-83
2020/12/08 10:10:08;;;;;;;43.58;21.60;;;7.70;99.90;;;;;;5035768;28;20111;-83
2020/12/08 10:12:34;;;;;;;39.80;20.48;;;7.80;99.90;;;;;;5037422;28;20411;-82
2020/12/08 10:15:00;;;;;;;48.22;21.90;;;7.90;99.90;;;;;;5044580;28;20013;-82
2020/12/08 10:17:25;;;;;;;49.50;21.25;;;7.80;99.90;;;;;;5039044;28;20029;-83
2020/12/08 10:19:51;;;;;;;39.03;21.00;;;7.70;99.90;;;;;;5045575;28;20546;-83
2020/12/08 10:22:16;;;;;;;41.40;21.00;;;7.70;99.90;;;;;;5045400;28;20025;-83
2020/12/08 10:24:42;;;;;;;41.75;20.33;;;7.70;99.90;;;;;;5036336;28;20118;-83
2020/12/08 10:27:08;;;;;;;38.78;20.17;;;7.60;99.90;;;;;;5036603;28;20055;-83
2020/12/08 10:29:33;;;;;;;39.72;20.40;;;7.70;99.90;;;;;;5037826;28;20143;-83
2020/12/08 10:31:59;;;;;;;41.92;21.63;;;7.80;99.90;;;;;;5037683;28;20620;-83
2020/12/08 10:34:25;;;;;;;42.83;21.10;;;7.90;99.90;;;;;;5038010;28;20044;-83
2020/12/08 10:36:51;;;;;;;39.05;19.85;;;8.00;99.90;;;;;;5043660;28;20036;-83
2020/12/08 10:39:16;;;;;;;37.50;20.08;;;8.20;99.90;;;;;;5044687;28;20033;-82
2020/12/08 10:41:42;;;;;;;44.47;20.10;;;8.30;99.90;;;;;;5034471;28;20082;-84
2020/12/08 10:44:07;;;;;;;38.13;19.70;;;8.40;99.90;;;;;;5036244;28;20079;-84
2020/12/08 10:46:34;;;;;;;40.97;21.42;;;8.50;99.90;;;;;;5036634;28;20031;-84
2020/12/08 10:49:00;;;;;;;44.15;21.63;;;8.50;99.90;;;;;;5032413;28;20078;-83
2020/12/08 10:51:26;;;;;;;42.10;20.85;;;8.60;99.90;;;;;;5038342;28;20033;-83
2020/12/08 10:53:51;;;;;;;44.75;21.83;;;8.70;99.90;;;;;;5042417;28;20220;-84
2020/12/08 10:56:25;;;;;;;43.80;21.60;;;8.80;99.90;;;;;;5043472;28;20021;-84
2020/12/08 10:58:51;;;;;;;39.42;20.75;;;8.80;99.90;;;;;;5043658;28;20025;-85
2020/12/08 11:01:21;;;;;;;44.95;20.90;;;9.10;99.90;;;;;;5039540;28;20041;-85
2020/12/08 11:03:47;;;;;;;37.15;19.45;;;9.10;99.90;;;;;;5031873;28;20036;-85
2020/12/08 11:06:24;;;;;;;41.42;19.38;;;9.20;99.90;;;;;;5037716;28;20029;-85
2020/12/08 11:08:51;;;;;;;39.20;20.20;;;9.10;99.90;;;;;;5034876;28;20692;-85
2020/12/08 11:11:22;;;;;;;46.80;20.38;;;9.20;99.90;;;;;;5037146;28;20099;-84
2020/12/08 11:13:47;;;;;;;37.42;20.08;;;9.30;99.40;;;;;;5032278;28;20053;-85
2020/12/08 11:16:13;;;;;;;39.88;19.92;;;9.40;99.50;;;;;;5040639;28;20064;-85
2020/12/08 11:18:38;;;;;;;38.00;20.55;;;9.50;98.90;;;;;;5040764;28;20041;-87
2020/12/08 11:21:04;;;;;;;37.53;19.23;;;9.80;98.00;;;;;;5037692;28;20017;-84
2020/12/08 11:23:29;;;;;;;35.95;20.08;;;9.80;97.50;;;;;;5040757;28;20075;-84
2020/12/08 11:25:55;;;;;;;40.92;19.70;;;9.90;97.30;;;;;;5037253;28;20021;-84
2020/12/08 11:28:20;;;;;;;43.30;19.95;;;9.90;96.80;;;;;;5040462;28;20033;-84
2020/12/08 11:30:46;;;;;;;38.63;20.15;;;9.90;96.50;;;;;;5039771;28;20032;-84
2020/12/08 11:33:11;;;;;;;39.40;19.75;;;9.90;96.60;;;;;;5031072;28;20063;-79
2020/12/08 11:35:37;;;;;;;41.92;21.50;;;9.60;96.60;;;;;;5033725;28;20036;-84
2020/12/08 11:38:02;;;;;;;40.38;20.40;;;9.30;97.30;;;;;;5044668;28;20017;-84
2020/12/08 11:40:28;;;;;;;40.53;21.23;;;9.20;98.20;;;;;;5032904;28;20472;-84
2020/12/08 11:42:53;;;;;;;38.63;19.55;;;9.20;98.50;;;;;;5033001;28;20040;-84
2020/12/08 11:45:19;;;;;;;41.53;20.70;;;9.20;98.30;;;;;;5035432;28;20036;-78
2020/12/08 11:47:44;;;;;;;40.10;21.25;;;9.30;98.20;;;;;;5039113;28;20032;-83
2020/12/08 11:50:10;;;;;;;39.55;19.98;;;9.40;98.30;;;;;;5035581;28;20033;-81
2020/12/08 11:52:36;;;;;;;39.90;20.88;;;9.40;98.20;;;;;;5035972;28;20145;-83
2020/12/08 11:55:06;;;;;;;40.40;21.35;;;9.50;98.00;;;;;;5040240;28;20021;-82
2020/12/08 11:57:35;;;;;;;41.92;21.15;;;9.50;97.50;;;;;;5038268;28;20025;-83
2020/12/08 12:00:01;;;;;;;41.28;21.02;;;9.50;97.50;;;;;;5039946;28;20025;-82
2020/12/08 12:02:27;;;;;;;37.88;19.95;;;9.60;97.90;;;;;;5043531;28;20413;-87
2020/12/08 12:04:53;;;;;;;42.58;21.27;;;9.50;97.30;;;;;;5038708;28;20025;-79
2020/12/08 12:07:18;;;;;;;44.28;21.52;;;9.30;97.80;;;;;;5040545;28;20094;-80
2020/12/08 12:09:43;;;;;;;40.83;21.00;;;9.10;98.40;;;;;;5042525;28;20072;-78
2020/12/08 12:12:09;;;;;;;40.25;21.20;;;9.20;98.40;;;;;;5033836;28;20087;-82
2020/12/08 12:14:35;;;;;;;40.28;21.17;;;9.40;98.10;;;;;;5035827;28;20028;-81
2020/12/08 12:17:00;;;;;;;35.58;21.25;;;9.60;97.20;;;;;;5033817;28;20029;-80
2020/12/08 12:19:25;;;;;;;39.60;21.45;;;9.80;96.20;;;;;;5035129;28;20044;-83
2020/12/08 12:21:51;;;;;;;43.20;21.25;;;10.30;95.60;;;;;;5034077;28;20025;-84
2020/12/08 12:24:16;;;;;;;34.97;19.83;;;10.40;94.50;;;;;;5026310;28;20120;-86
2020/12/08 12:26:42;;;;;;;41.15;20.42;;;10.70;94.30;;;;;;5032643;28;20025;-84
2020/12/08 12:29:07;;;;;;;40.72;21.77;;;10.60;93.20;;;;;;5032962;28;20060;-84
2020/12/08 12:31:33;;;;;;;40.70;20.98;;;10.50;93.20;;;;;;5028806;28;20501;-84
2020/12/08 12:33:58;;;;;;;36.63;21.17;;;10.50;93.20;;;;;;5033240;28;20017;-84